This is the latest recevied weather packets stored in our database for station/object W5ALL-WX. If no packets are shown the sender has not sent any weather packets the latest 1 day(s).
| Time | Temp. | Humidity | Pressure | Rain* | Wind** | Luminosity | Snow |
|---|---|---|---|---|---|---|---|
| 1778050932 | 16.67° C | 33% | 1012.5 hPa | 0 mm | - | - | - |
| 1778050632 | 16.67° C | 32% | 1012.5 hPa | 0 mm | - | - | - |
| 1778050332 | 17.22° C | 31% | 1012.4 hPa | 0 mm | - | - | - |
| 1778050032 | 17.22° C | 31% | 1012.2 hPa | 0 mm | - | - | - |
| 1778049732 | 17.22° C | 31% | 1012.2 hPa | 0 mm | - | - | - |
| 1778049432 | 17.22° C | 31% | 1012.2 hPa | 0 mm | - | - | - |
| 1778049132 | 17.22° C | 30% | 1012.1 hPa | 0 mm | - | - | - |
| 1778048832 | 17.78° C | 30% | 1012.1 hPa | 0 mm | - | - | - |
| 1778048232 | 17.22° C | 31% | 1012 hPa | 0 mm | - | - | - |
| 1778043431 | 18.33° C | 32% | 1011.4 hPa | 0 mm | - | - | - |
| 1778041331 | 18.89° C | 34% | 1011.1 hPa | 0 mm | - | - | - |
| 1778040731 | 18.89° C | 34% | 1011 hPa | 0 mm | - | - | - |
| 1778038031 | 19.44° C | 34% | 1010.5 hPa | 0 mm | - | - | - |
| 1778037731 | 19.44° C | 34% | 1010.5 hPa | 0 mm | - | - | - |
| 1778037431 | 19.44° C | 34% | 1010.4 hPa | 0 mm | - | - | - |
| 1778037131 | 19.44° C | 33% | 1010.4 hPa | 0 mm | - | - | - |
| 1778036831 | 19.44° C | 33% | 1010.3 hPa | 0 mm | - | - | - |
| 1778036531 | 19.44° C | 34% | 1010.3 hPa | 0 mm | - | - | - |
| 1778036231 | 19.44° C | 34% | 1010.3 hPa | 0 mm | - | - | - |
| 1778035931 | 19.44° C | 34% | 1010.1 hPa | 0 mm | - | - | - |
| 1778035631 | 19.44° C | 34% | 1010.1 hPa | 0 mm | - | - | - |
| 1778035331 | 19.44° C | 34% | 1010.1 hPa | 0 mm | - | - | - |
| 1778035031 | 19.44° C | 34% | 1009.9 hPa | 0 mm | - | - | - |
| 1778034731 | 19.44° C | 34% | 1010 hPa | 0 mm | - | - | - |
| 1778034431 | 20° C | 33% | 1009.9 hPa | 0 mm | - | - | - |
* Rain latest hour (hover to see other rain measurements)
** Current wind speed in m/s (hover to see current wind gust speed)